Time;durP1;ratioP1;P1;durP2;ratioP2;P2;SDS_P1;SDS_P2;PMS_P1;PMS_P2;Temp;Humidity;BMP_temperature;BMP_pressure;BME280_temperature;BME280_humidity;BME280_pressure;Samples;Min_cycle;Max_cycle;Signal;HPM_P1;HPM_P2
2023/03/31 00:01:45;;;;;;;26.35;5.78;;;9.70;99.90;;;;;;5106379;27;20048;-74
2023/03/31 00:04:12;;;;;;;35.85;5.28;;;9.70;99.90;;;;;;5122062;27;20080;-73
2023/03/31 00:06:40;;;;;;;32.00;5.72;;;9.80;99.90;;;;;;5104114;27;20497;-72
2023/03/31 00:09:23;;;;;;;32.63;5.65;;;9.80;99.90;;;;;;5136618;27;20055;-72
2023/03/31 00:11:50;;;;;;;33.78;5.53;;;9.80;99.90;;;;;;5071581;27;20935;-74
2023/03/31 00:14:19;;;;;;;28.98;5.25;;;9.80;99.90;;;;;;5136655;27;20078;-73
2023/03/31 00:16:45;;;;;;;24.30;5.05;;;9.80;99.90;;;;;;5101471;27;20079;-73
2023/03/31 00:19:17;;;;;;;35.40;6.53;;;9.80;99.90;;;;;;5135485;27;20130;-72
2023/03/31 00:21:47;;;;;;;30.77;5.95;;;9.80;99.90;;;;;;5101817;27;20562;-73
2023/03/31 00:24:15;;;;;;;29.08;5.38;;;9.80;99.90;;;;;;5097362;27;20043;-72
2023/03/31 00:26:41;;;;;;;32.30;5.43;;;9.80;99.90;;;;;;5101330;27;20058;-72
2023/03/31 00:29:09;;;;;;;36.42;6.25;;;9.70;99.90;;;;;;5086996;27;20484;-73
2023/03/31 00:31:35;;;;;;;27.73;5.10;;;9.70;99.90;;;;;;5101911;27;20043;-72
2023/03/31 00:34:01;;;;;;;27.58;5.85;;;9.70;99.90;;;;;;5084343;27;20188;-73
2023/03/31 00:36:27;;;;;;;25.55;4.90;;;9.60;99.90;;;;;;5121016;27;20047;-72
2023/03/31 00:39:07;;;;;;;31.33;5.38;;;9.60;99.90;;;;;;5103582;27;20378;-73
2023/03/31 00:41:34;;;;;;;29.60;5.97;;;9.60;99.90;;;;;;5117775;27;20079;-74
2023/03/31 00:44:07;;;;;;;31.15;6.13;;;9.60;99.90;;;;;;5117473;27;20509;-73
2023/03/31 00:47:00;;;;;;;32.13;5.50;;;9.50;99.90;;;;;;5134286;27;20050;-73
2023/03/31 00:49:37;;;;;;;27.17;4.75;;;9.50;99.90;;;;;;5100968;27;20074;-72
2023/03/31 00:52:08;;;;;;;28.08;4.80;;;9.50;99.90;;;;;;5102282;27;20043;-74
2023/03/31 00:54:36;;;;;;;24.35;5.18;;;9.50;99.90;;;;;;5117217;27;20126;-72
2023/03/31 00:57:05;;;;;;;24.17;5.35;;;9.50;99.90;;;;;;5102153;27;20047;-72
2023/03/31 00:59:41;;;;;;;22.45;4.82;;;9.40;99.90;;;;;;5100413;27;20066;-72
2023/03/31 01:02:11;;;;;;;28.00;5.28;;;9.40;99.90;;;;;;5104315;27;20126;-72
2023/03/31 01:04:44;;;;;;;26.20;4.68;;;9.40;99.90;;;;;;5102088;27;20434;-73
2023/03/31 01:07:29;;;;;;;21.58;4.53;;;9.40;99.90;;;;;;5102984;27;21174;-72
2023/03/31 01:10:03;;;;;;;24.65;4.72;;;9.30;99.90;;;;;;5114944;27;20088;-73
2023/03/31 01:12:32;;;;;;;26.05;4.88;;;9.30;99.90;;;;;;5084626;27;20039;-74
2023/03/31 01:14:58;;;;;;;29.55;4.88;;;9.30;99.90;;;;;;5101671;27;21001;-74
2023/03/31 01:17:30;;;;;;;23.15;4.57;;;9.30;99.90;;;;;;5102973;27;20402;-73
2023/03/31 01:20:18;;;;;;;29.83;4.72;;;9.30;99.90;;;;;;5087210;27;20053;-72
2023/03/31 01:23:14;;;;;;;29.55;5.15;;;9.20;99.90;;;;;;5098444;27;20051;-73
2023/03/31 01:26:08;;;;;;;26.90;4.60;;;9.20;99.90;;;;;;5121091;27;20588;-72
2023/03/31 01:28:43;;;;;;;17.67;4.70;;;9.20;99.90;;;;;;5097023;27;20118;-74
2023/03/31 01:31:24;;;;;;;28.08;5.10;;;9.20;99.90;;;;;;5097090;27;20134;-73
2023/03/31 01:34:04;;;;;;;19.95;4.40;;;9.20;99.90;;;;;;5091338;27;20054;-72
2023/03/31 01:36:36;;;;;;;26.45;5.05;;;9.10;99.90;;;;;;5093231;28;20142;-73
2023/03/31 01:39:08;;;;;;;21.95;4.18;;;9.20;99.90;;;;;;5091819;28;20050;-73
2023/03/31 01:42:06;;;;;;;22.85;4.43;;;9.20;99.90;;;;;;5092820;27;20055;-73
2023/03/31 01:44:53;;;;;;;21.80;4.15;;;9.20;99.90;;;;;;5070597;27;20065;-74
2023/03/31 01:47:24;;;;;;;24.23;4.45;;;9.30;99.90;;;;;;5077183;28;20584;-73
2023/03/31 01:49:59;;;;;;;34.95;4.70;;;9.30;99.90;;;;;;5091546;27;20047;-73
2023/03/31 01:52:28;;;;;;;30.67;5.13;;;9.30;99.90;;;;;;5111493;27;20051;-73
2023/03/31 01:55:05;;;;;;;25.17;4.63;;;9.30;99.90;;;;;;5091322;27;20043;-73
2023/03/31 01:57:46;;;;;;;22.25;4.80;;;9.30;99.90;;;;;;5080380;27;20122;-74
2023/03/31 02:00:15;;;;;;;26.27;4.95;;;9.30;99.90;;;;;;5092562;27;20066;-74
2023/03/31 02:02:53;;;;;;;22.52;4.53;;;9.30;99.90;;;;;;5080541;27;20127;-74
2023/03/31 02:05:25;;;;;;;27.08;4.30;;;9.30;99.90;;;;;;5099165;27;20083;-72
2023/03/31 02:08:22;;;;;;;24.48;4.45;;;9.30;99.90;;;;;;5128418;27;20047;-73
2023/03/31 02:10:49;;;;;;;30.08;4.57;;;9.30;99.90;;;;;;5053286;27;20054;-73
2023/03/31 02:13:17;;;;;;;23.25;4.93;;;9.30;99.90;;;;;;5096509;27;20042;-73
2023/03/31 02:15:47;;;;;;;22.33;4.35;;;9.20;99.90;;;;;;5095238;27;20157;-73
2023/03/31 02:18:17;;;;;;;18.98;3.88;;;9.30;99.90;;;;;;5096511;27;20111;-74
2023/03/31 02:20:47;;;;;;;25.95;4.88;;;9.30;99.90;;;;;;5093952;27;20035;-74
2023/03/31 02:23:16;;;;;;;22.75;4.53;;;9.30;99.90;;;;;;5095567;27;20035;-74
2023/03/31 02:26:12;;;;;;;27.73;4.43;;;9.30;99.90;;;;;;5098371;27;20134;-74
2023/03/31 02:28:38;;;;;;;25.70;5.18;;;9.30;99.90;;;;;;5094060;27;20050;-72
2023/03/31 02:31:10;;;;;;;26.33;4.50;;;9.30;99.90;;;;;;5094591;27;20043;-72
2023/03/31 02:33:35;;;;;;;22.80;4.47;;;9.30;99.90;;;;;;5094819;27;20088;-72
2023/03/31 02:36:02;;;;;;;21.98;4.65;;;9.30;99.90;;;;;;5097050;27;20051;-73
2023/03/31 02:38:32;;;;;;;17.20;3.70;;;9.30;99.90;;;;;;5079564;27;20046;-73
2023/03/31 02:40:59;;;;;;;22.85;3.90;;;9.30;99.90;;;;;;5094511;27;20094;-73
2023/03/31 02:43:26;;;;;;;21.92;4.05;;;9.30;99.90;;;;;;5093070;27;20421;-72
2023/03/31 02:45:52;;;;;;;20.10;4.15;;;9.30;99.90;;;;;;5110329;27;20179;-73
2023/03/31 02:48:21;;;;;;;24.92;4.43;;;9.30;99.90;;;;;;5113510;27;20408;-74
2023/03/31 02:51:06;;;;;;;26.88;4.38;;;9.30;99.90;;;;;;5095714;27;20450;-73
2023/03/31 02:53:53;;;;;;;16.60;4.05;;;9.30;99.90;;;;;;5095793;27;20055;-74
2023/03/31 02:56:46;;;;;;;21.25;4.10;;;9.40;99.90;;;;;;5111268;27;20078;-74
2023/03/31 02:59:56;;;;;;;16.88;3.90;;;9.40;99.90;;;;;;5112085;27;20043;-74
2023/03/31 03:02:53;;;;;;;16.60;3.45;;;9.40;99.90;;;;;;5083639;27;20096;-73
2023/03/31 03:05:38;;;;;;;23.23;3.58;;;9.40;99.90;;;;;;5093377;27;20130;-73
2023/03/31 03:08:28;;;;;;;18.63;3.83;;;9.40;99.90;;;;;;5093304;27;20056;-73
2023/03/31 03:11:16;;;;;;;10.57;3.20;;;9.40;99.90;;;;;;5094805;27;20142;-74
2023/03/31 03:14:05;;;;;;;17.88;3.60;;;9.50;99.90;;;;;;5128656;27;20077;-73
2023/03/31 03:16:48;;;;;;;18.40;5.22;;;9.50;99.90;;;;;;5130016;27;20087;-72
2023/03/31 03:19:20;;;;;;;18.75;4.65;;;9.50;99.90;;;;;;5099727;27;20047;-73
2023/03/31 03:21:47;;;;;;;14.57;4.60;;;9.50;99.90;;;;;;5128351;27;21206;-73
2023/03/31 03:24:17;;;;;;;17.60;4.65;;;9.50;99.90;;;;;;5128426;27;20047;-74
2023/03/31 03:26:44;;;;;;;15.50;4.25;;;9.50;99.90;;;;;;5097873;27;20039;-72
2023/03/31 03:29:14;;;;;;;15.45;4.30;;;9.50;99.90;;;;;;5126901;27;20135;-74
2023/03/31 03:31:43;;;;;;;14.85;4.18;;;9.60;99.90;;;;;;5110518;27;20042;-74
2023/03/31 03:34:09;;;;;;;14.13;3.63;;;9.50;99.90;;;;;;5096786;27;20047;-73
2023/03/31 03:36:36;;;;;;;12.95;4.57;;;9.50;99.90;;;;;;5095340;27;20056;-73
2023/03/31 03:39:03;;;;;;;15.13;4.85;;;9.50;99.90;;;;;;5083492;27;20054;-73
2023/03/31 03:41:32;;;;;;;14.05;4.00;;;9.50;99.90;;;;;;5094452;27;20498;-75
2023/03/31 03:43:59;;;;;;;11.30;3.63;;;9.50;99.90;;;;;;5131332;27;20050;-74
2023/03/31 03:46:25;;;;;;;11.77;3.50;;;9.50;99.90;;;;;;5131441;27;20457;-73
2023/03/31 03:48:51;;;;;;;12.13;4.03;;;9.50;99.90;;;;;;5079357;27;20176;-74
2023/03/31 03:51:16;;;;;;;10.68;2.97;;;9.50;99.90;;;;;;5079587;27;20099;-73
2023/03/31 03:53:42;;;;;;;8.45;3.55;;;9.50;99.90;;;;;;5109460;27;20042;-73
2023/03/31 03:56:08;;;;;;;8.18;3.20;;;9.50;99.90;;;;;;5129291;27;20039;-72
2023/03/31 03:58:39;;;;;;;7.90;3.65;;;9.40;99.90;;;;;;5110331;27;20047;-74
2023/03/31 04:01:05;;;;;;;10.93;5.45;;;9.50;99.90;;;;;;5064637;27;20047;-73
2023/03/31 04:03:31;;;;;;;18.52;6.88;;;9.40;99.90;;;;;;5096522;27;20058;-73
2023/03/31 04:05:57;;;;;;;14.77;7.03;;;9.50;99.90;;;;;;5077436;27;20043;-74
2023/03/31 04:08:23;;;;;;;18.35;6.25;;;9.50;99.90;;;;;;5077006;27;20513;-73
2023/03/31 04:10:49;;;;;;;16.70;7.22;;;9.40;99.90;;;;;;5111288;27;20047;-73
2023/03/31 04:13:16;;;;;;;13.63;6.88;;;9.50;99.90;;;;;;5093979;27;20070;-73
2023/03/31 04:15:42;;;;;;;14.90;6.68;;;9.50;99.90;;;;;;5113016;27;20149;-73
2023/03/31 04:18:21;;;;;;;17.38;7.05;;;9.40;99.90;;;;;;5112428;27;20046;-73
2023/03/31 04:21:02;;;;;;;16.00;7.32;;;9.40;99.90;;;;;;5079791;27;20051;-72
2023/03/31 04:23:37;;;;;;;21.00;8.32;;;9.40;99.90;;;;;;5127299;27;20137;-71
2023/03/31 04:26:07;;;;;;;17.70;7.53;;;9.40;99.90;;;;;;5064923;27;20047;-73
2023/03/31 04:28:33;;;;;;;19.13;7.43;;;10.70;99.90;;;;;;5090498;27;20700;-73
2023/03/31 04:31:02;;;;;;;14.77;6.00;;;9.50;99.90;;;;;;5127548;27;20127;-73
2023/03/31 04:33:28;;;;;;;21.70;6.90;;;9.50;99.90;;;;;;5093286;27;20047;-74
2023/03/31 04:35:54;;;;;;;15.82;6.28;;;9.50;99.90;;;;;;5108168;27;20041;-73
2023/03/31 04:38:25;;;;;;;19.67;6.53;;;9.50;99.90;;;;;;5107456;27;20389;-73
2023/03/31 04:40:52;;;;;;;15.70;6.05;;;9.50;99.90;;;;;;5090213;27;20058;-73
2023/03/31 04:43:20;;;;;;;18.15;6.05;;;9.40;99.90;;;;;;5111887;27;20047;-73
2023/03/31 04:45:46;;;;;;;12.60;4.72;;;9.40;99.90;;;;;;5080432;27;20047;-73
2023/03/31 04:48:12;;;;;;;16.08;5.45;;;9.40;99.90;;;;;;5093440;27;20051;-74
2023/03/31 04:50:38;;;;;;;13.93;5.20;;;9.40;99.90;;;;;;5079825;27;20050;-74
2023/03/31 04:53:04;;;;;;;14.60;5.00;;;9.40;99.90;;;;;;5124485;27;20039;-73
2023/03/31 04:55:30;;;;;;;14.18;4.57;;;9.40;99.90;;;;;;5075226;27;20043;-73
2023/03/31 04:58:03;;;;;;;15.60;4.68;;;9.40;99.90;;;;;;5094045;27;20354;-73
2023/03/31 05:00:29;;;;;;;10.48;5.25;;;9.40;99.90;;;;;;5094560;27;20506;-74
2023/03/31 05:02:55;;;;;;;12.27;5.10;;;8.90;99.90;;;;;;5109437;27;20043;-73
2023/03/31 05:05:21;;;;;;;11.10;4.82;;;9.40;99.90;;;;;;5063228;27;20050;-74
2023/03/31 05:07:47;;;;;;;16.63;5.82;;;9.40;99.90;;;;;;5077774;27;20053;-73
2023/03/31 05:10:13;;;;;;;11.80;5.10;;;9.40;99.90;;;;;;5092417;27;20122;-74
2023/03/31 05:12:39;;;;;;;13.48;6.22;;;9.40;99.90;;;;;;5095067;27;20048;-73
2023/03/31 05:15:06;;;;;;;13.48;5.68;;;9.40;99.90;;;;;;5091762;27;20054;-73
2023/03/31 05:17:33;;;;;;;13.57;5.78;;;9.40;99.90;;;;;;5080012;27;20072;-74
2023/03/31 05:19:59;;;;;;;13.40;5.78;;;9.40;99.90;;;;;;5106808;27;20138;-74
2023/03/31 05:22:26;;;;;;;16.45;5.70;;;9.40;99.90;;;;;;5112118;27;20402;-74
2023/03/31 05:24:52;;;;;;;13.70;6.15;;;9.50;99.90;;;;;;5078873;27;20053;-74
2023/03/31 05:27:20;;;;;;;18.20;6.40;;;9.50;99.90;;;;;;5074840;27;20043;-74
2023/03/31 05:29:48;;;;;;;19.25;6.80;;;9.40;99.90;;;;;;5090578;27;20326;-74
2023/03/31 05:32:15;;;;;;;12.80;5.63;;;9.40;99.90;;;;;;5110229;27;20058;-73
2023/03/31 05:34:42;;;;;;;11.30;5.60;;;8.70;99.90;;;;;;5079018;27;20051;-73
2023/03/31 05:37:07;;;;;;;11.43;5.97;;;9.40;99.90;;;;;;5097769;27;20057;-73
2023/03/31 05:39:34;;;;;;;17.65;5.82;;;9.50;99.90;;;;;;5090732;27;20101;-74
2023/03/31 05:42:01;;;;;;;13.45;5.53;;;9.40;99.90;;;;;;5079103;27;20043;-74
2023/03/31 05:44:27;;;;;;;11.80;6.13;;;9.40;99.90;;;;;;5078104;28;20278;-74
2023/03/31 05:46:53;;;;;;;10.23;5.20;;;9.40;99.90;;;;;;5110476;27;20039;-76
2023/03/31 05:49:19;;;;;;;11.02;5.68;;;9.40;99.90;;;;;;5068486;27;20047;-78
2023/03/31 05:51:47;;;;;;;14.05;5.55;;;9.40;99.90;;;;;;5082175;27;20124;-78
2023/03/31 05:54:13;;;;;;;15.55;5.78;;;9.40;99.90;;;;;;5080508;27;20127;-78
2023/03/31 05:56:39;;;;;;;13.27;5.57;;;9.40;99.90;;;;;;5115469;27;20535;-76
2023/03/31 05:59:05;;;;;;;11.60;5.25;;;9.40;99.90;;;;;;5117283;27;20409;-76
2023/03/31 06:01:37;;;;;;;12.82;5.82;;;9.40;99.90;;;;;;5083804;27;20434;-75
2023/03/31 06:04:03;;;;;;;10.68;5.35;;;9.50;99.90;;;;;;5113089;27;20050;-76
2023/03/31 06:06:29;;;;;;;12.98;6.03;;;9.50;99.90;;;;;;5130055;27;20407;-76
2023/03/31 06:08:55;;;;;;;14.48;5.20;;;9.50;99.90;;;;;;5114872;27;20047;-76
2023/03/31 06:11:26;;;;;;;12.65;6.18;;;9.50;99.90;;;;;;5115032;27;20046;-77
2023/03/31 06:13:52;;;;;;;15.73;5.63;;;9.50;99.90;;;;;;5097945;27;20500;-76
2023/03/31 06:16:18;;;;;;;12.70;6.03;;;9.50;99.90;;;;;;5098076;27;20054;-78
2023/03/31 06:18:44;;;;;;;14.00;6.55;;;9.50;99.90;;;;;;5083816;27;20322;-77
2023/03/31 06:21:15;;;;;;;14.48;6.53;;;9.60;99.90;;;;;;5114919;27;20513;-74
2023/03/31 06:23:43;;;;;;;16.05;6.28;;;9.60;99.90;;;;;;5130924;27;20050;-76
2023/03/31 06:26:13;;;;;;;12.32;6.10;;;9.60;99.90;;;;;;5081624;27;20318;-76
2023/03/31 06:28:39;;;;;;;14.13;6.25;;;9.60;99.90;;;;;;5099018;27;20114;-76
2023/03/31 06:31:08;;;;;;;11.00;5.80;;;9.60;99.90;;;;;;5086998;27;20509;-76
2023/03/31 06:33:34;;;;;;;11.20;5.22;;;9.60;99.90;;;;;;5101456;27;20074;-75
2023/03/31 06:36:02;;;;;;;10.88;5.43;;;9.60;99.90;;;;;;5131343;27;20139;-76
2023/03/31 06:38:29;;;;;;;10.75;5.43;;;9.60;99.90;;;;;;5100835;27;20062;-76
2023/03/31 06:40:59;;;;;;;12.07;4.45;;;9.60;99.90;;;;;;5088165;27;20051;-75
2023/03/31 06:43:24;;;;;;;10.10;4.32;;;9.60;99.90;;;;;;5082567;27;20050;-76
2023/03/31 06:45:52;;;;;;;8.20;5.03;;;9.60;99.90;;;;;;5099184;27;20043;-75
2023/03/31 06:48:18;;;;;;;10.05;4.63;;;9.60;99.90;;;;;;5116229;27;20047;-75
2023/03/31 06:50:44;;;;;;;7.25;4.32;;;9.60;99.90;;;;;;5097032;27;20047;-77
2023/03/31 06:53:10;;;;;;;8.57;3.95;;;9.60;99.90;;;;;;5102860;27;20061;-76
2023/03/31 06:55:38;;;;;;;7.35;3.63;;;9.60;99.90;;;;;;5071445;27;20070;-76
2023/03/31 06:58:04;;;;;;;7.20;3.65;;;9.60;99.90;;;;;;5088548;27;20043;-76
2023/03/31 07:00:31;;;;;;;8.00;4.00;;;9.60;99.90;;;;;;5140338;27;20119;-77
2023/03/31 07:02:57;;;;;;;8.82;3.55;;;9.60;99.90;;;;;;5102707;27;20039;-76
2023/03/31 07:05:27;;;;;;;8.70;3.65;;;9.60;99.90;;;;;;5122058;27;20075;-74
2023/03/31 07:07:56;;;;;;;9.27;3.20;;;9.60;99.90;;;;;;5098172;27;20052;-74
2023/03/31 07:10:27;;;;;;;8.80;3.90;;;9.60;99.90;;;;;;5103906;27;20056;-76
2023/03/31 07:12:53;;;;;;;6.47;3.47;;;9.60;99.90;;;;;;5103401;27;20035;-75
2023/03/31 07:15:27;;;;;;;7.85;3.42;;;9.60;99.90;;;;;;5087254;27;20039;-75
2023/03/31 07:18:02;;;;;;;9.52;3.28;;;9.60;99.90;;;;;;5103786;27;20069;-75
2023/03/31 07:20:29;;;;;;;6.05;3.20;;;9.60;99.90;;;;;;5105831;27;20051;-77
2023/03/31 07:22:55;;;;;;;8.63;2.95;;;9.60;99.90;;;;;;5084793;27;20059;-76
2023/03/31 07:25:21;;;;;;;4.85;2.60;;;9.50;99.90;;;;;;5101555;27;20050;-75
2023/03/31 07:27:47;;;;;;;4.43;2.38;;;9.50;99.90;;;;;;5086153;27;20544;-75
2023/03/31 07:30:16;;;;;;;4.50;2.20;;;9.50;99.90;;;;;;5119800;27;20259;-74
2023/03/31 07:32:45;;;;;;;4.78;2.28;;;9.50;99.90;;;;;;5086541;27;20046;-73
2023/03/31 07:35:22;;;;;;;5.95;2.35;;;9.50;99.90;;;;;;5119041;27;20085;-74
2023/03/31 07:37:52;;;;;;;5.10;2.28;;;9.50;99.90;;;;;;5119327;27;20043;-76
2023/03/31 07:40:21;;;;;;;6.30;2.70;;;9.50;99.90;;;;;;5086704;27;20067;-74
2023/03/31 07:42:59;;;;;;;8.32;3.55;;;9.50;99.90;;;;;;5101848;27;20049;-74
2023/03/31 07:45:32;;;;;;;6.22;3.03;;;9.50;99.90;;;;;;5102644;27;20039;-74
2023/03/31 07:47:59;;;;;;;5.40;4.00;;;9.60;99.90;;;;;;5087668;27;20130;-75
2023/03/31 07:50:30;;;;;;;5.55;3.15;;;9.60;99.90;;;;;;5104099;27;20754;-74
2023/03/31 07:52:55;;;;;;;4.95;3.10;;;9.60;99.90;;;;;;5104060;27;20593;-74
2023/03/31 07:55:26;;;;;;;6.90;3.53;;;9.00;99.90;;;;;;5086517;27;20063;-75
2023/03/31 07:57:52;;;;;;;7.60;3.55;;;9.70;99.90;;;;;;5051073;28;20142;-73
2023/03/31 08:00:24;;;;;;;8.73;3.60;;;9.80;99.90;;;;;;5068612;28;20089;-75
2023/03/31 08:02:50;;;;;;;6.45;3.80;;;9.80;99.90;;;;;;5058885;28;20043;-75
2023/03/31 08:05:18;;;;;;;8.00;3.63;;;9.90;99.90;;;;;;5054223;28;20414;-72
2023/03/31 08:07:50;;;;;;;5.93;3.78;;;9.90;99.90;;;;;;5053292;28;20613;-75
2023/03/31 08:10:31;;;;;;;8.80;4.00;;;10.00;99.90;;;;;;5052251;28;20219;-75
2023/03/31 08:13:10;;;;;;;9.93;3.88;;;10.00;99.90;;;;;;5049032;28;20542;-80
2023/03/31 08:15:36;;;;;;;9.57;4.50;;;10.00;99.90;;;;;;5072411;28;20047;-84
2023/03/31 08:18:03;;;;;;;8.60;4.30;;;10.10;99.90;;;;;;5059329;28;20052;-75
2023/03/31 08:20:30;;;;;;;9.23;4.25;;;10.10;99.90;;;;;;5068176;28;20237;-78
2023/03/31 08:22:56;;;;;;;9.38;4.18;;;10.10;99.90;;;;;;5053917;28;20476;-77
2023/03/31 08:25:22;;;;;;;11.50;4.03;;;10.20;99.90;;;;;;5070335;28;20048;-75
2023/03/31 08:27:52;;;;;;;7.95;3.60;;;10.10;99.90;;;;;;5069578;28;20055;-76
2023/03/31 08:30:23;;;;;;;7.78;4.07;;;10.20;99.90;;;;;;5037530;28;20144;-77
2023/03/31 08:32:50;;;;;;;7.85;3.92;;;10.20;99.90;;;;;;5048457;28;20036;-76
2023/03/31 08:35:19;;;;;;;10.32;3.83;;;10.20;99.90;;;;;;5068445;28;20486;-79
2023/03/31 08:37:46;;;;;;;7.90;3.90;;;10.20;99.90;;;;;;5027400;28;20032;-79
2023/03/31 08:40:18;;;;;;;10.07;4.15;;;10.30;99.90;;;;;;5051370;28;20080;-78
2023/03/31 08:43:01;;;;;;;7.80;4.20;;;10.30;99.90;;;;;;5086010;28;20044;-77
2023/03/31 08:45:33;;;;;;;10.00;4.03;;;10.30;99.90;;;;;;5070394;28;20052;-75
2023/03/31 08:48:26;;;;;;;7.15;3.65;;;10.40;99.90;;;;;;5103847;27;20527;-76
2023/03/31 08:51:00;;;;;;;6.03;3.80;;;10.40;99.90;;;;;;5085551;27;20062;-74
2023/03/31 08:53:30;;;;;;;8.27;4.00;;;10.40;99.90;;;;;;5100854;27;20058;-76
2023/03/31 08:55:57;;;;;;;10.48;4.00;;;10.50;99.90;;;;;;5098834;27;20051;-75
2023/03/31 08:58:45;;;;;;;9.27;3.65;;;10.50;99.90;;;;;;5131616;27;20043;-75
2023/03/31 09:01:25;;;;;;;8.73;3.63;;;10.50;99.90;;;;;;5133712;27;20541;-74
2023/03/31 09:04:22;;;;;;;7.35;3.65;;;10.50;99.90;;;;;;5099421;27;20169;-75
2023/03/31 09:07:16;;;;;;;10.45;3.30;;;10.60;99.90;;;;;;5100804;27;20043;-76
2023/03/31 09:10:03;;;;;;;9.88;3.70;;;10.60;99.90;;;;;;5116752;27;20178;-75
2023/03/31 09:12:42;;;;;;;9.23;2.88;;;10.70;99.90;;;;;;5081933;27;20036;-74
2023/03/31 09:15:33;;;;;;;4.72;3.25;;;10.70;99.90;;;;;;5097276;27;20463;-72
2023/03/31 09:18:09;;;;;;;7.97;3.20;;;10.80;99.90;;;;;;5113881;27;20377;-72
2023/03/31 09:20:42;;;;;;;6.18;2.85;;;10.80;99.90;;;;;;5104347;27;20806;-73
2023/03/31 09:23:23;;;;;;;7.85;2.72;;;10.80;99.90;;;;;;5101856;27;20283;-73
2023/03/31 09:25:50;;;;;;;7.10;2.70;;;10.80;99.90;;;;;;5097266;27;20130;-73
2023/03/31 09:28:24;;;;;;;4.30;2.72;;;10.80;99.90;;;;;;5097724;27;20066;-73
2023/03/31 09:30:51;;;;;;;6.90;2.30;;;10.80;99.90;;;;;;5097088;27;20396;-73
2023/03/31 09:33:32;;;;;;;5.20;2.38;;;10.80;99.90;;;;;;5097161;27;20553;-74
2023/03/31 09:36:00;;;;;;;6.60;3.28;;;10.90;99.90;;;;;;5080887;27;20100;-74
2023/03/31 09:38:30;;;;;;;5.82;2.85;;;10.90;99.90;;;;;;5099699;27;20059;-72
2023/03/31 09:41:01;;;;;;;4.63;2.58;;;10.90;99.90;;;;;;5137083;27;20370;-73
2023/03/31 09:43:30;;;;;;;6.53;2.95;;;10.90;99.90;;;;;;5098392;27;20051;-73
2023/03/31 09:45:56;;;;;;;4.57;2.80;;;10.80;99.90;;;;;;5095809;27;20043;-71
2023/03/31 09:48:33;;;;;;;5.70;3.10;;;10.90;99.90;;;;;;5062474;27;20107;-73
2023/03/31 09:51:13;;;;;;;6.15;2.92;;;10.90;99.90;;;;;;5113618;27;20055;-73
2023/03/31 09:53:48;;;;;;;7.10;3.28;;;10.90;99.90;;;;;;5130779;27;20404;-74
2023/03/31 09:56:32;;;;;;;8.30;3.03;;;10.90;99.90;;;;;;5132796;27;20051;-72
2023/03/31 09:59:02;;;;;;;9.30;3.50;;;11.00;99.90;;;;;;5099775;28;20434;-73
2023/03/31 10:01:28;;;;;;;10.02;3.50;;;11.10;99.90;;;;;;5101511;28;20497;-74
2023/03/31 10:03:55;;;;;;;8.45;3.78;;;11.20;99.90;;;;;;5096589;27;20057;-74
2023/03/31 10:06:23;;;;;;;8.75;4.25;;;11.30;99.90;;;;;;5091074;27;20442;-73
2023/03/31 10:08:58;;;;;;;9.98;4.43;;;11.40;99.90;;;;;;5103086;28;20060;-73
2023/03/31 10:11:26;;;;;;;7.18;4.20;;;11.50;99.90;;;;;;5103761;28;20063;-73
2023/03/31 10:14:09;;;;;;;10.40;4.57;;;11.60;99.90;;;;;;5100298;27;20072;-72
2023/03/31 10:16:51;;;;;;;8.02;4.43;;;11.70;99.90;;;;;;5099375;27;20046;-72
2023/03/31 10:19:27;;;;;;;11.25;4.72;;;11.90;99.90;;;;;;5102498;27;20048;-72
2023/03/31 10:22:03;;;;;;;10.20;4.57;;;12.00;99.90;;;;;;5134378;27;20104;-72
2023/03/31 10:24:41;;;;;;;8.98;4.30;;;12.00;99.90;;;;;;5099291;27;20051;-72
2023/03/31 10:27:24;;;;;;;9.07;4.10;;;12.10;99.90;;;;;;5084747;27;20043;-73
2023/03/31 10:30:11;;;;;;;11.23;4.82;;;12.20;99.90;;;;;;5090010;27;20082;-75
2023/03/31 10:32:40;;;;;;;;;;;12.30;99.90;;;;;;5096900;27;20047;-72
2023/03/31 10:35:26;;;;;;;11.68;4.60;;;13.00;99.90;;;;;;5101204;27;19920;-72
2023/03/31 10:37:56;;;;;;;14.03;4.60;;;12.80;99.90;;;;;;5101075;27;20050;-73
2023/03/31 10:40:27;;;;;;;9.32;4.18;;;13.10;99.90;;;;;;5097327;27;20881;-73
2023/03/31 10:43:15;;;;;;;10.05;4.18;;;13.30;99.90;;;;;;5097763;27;20055;-75
2023/03/31 10:45:51;;;;;;;10.70;3.83;;;13.50;99.90;;;;;;5099501;27;20043;-73
2023/03/31 10:48:23;;;;;;;10.52;3.60;;;14.20;99.90;;;;;;5133645;27;20043;-73
2023/03/31 10:50:53;;;;;;;8.70;3.70;;;13.60;99.90;;;;;;5100590;27;20046;-73
2023/03/31 10:53:20;;;;;;;10.07;3.40;;;13.70;99.90;;;;;;5117955;27;20054;-74
2023/03/31 10:56:08;;;;;;;9.75;4.10;;;14.00;99.90;;;;;;5099608;27;20043;-73
2023/03/31 10:59:15;;;;;;;8.45;3.63;;;14.20;99.90;;;;;;5100810;27;20051;-74
2023/03/31 11:01:47;;;;;;;8.98;3.60;;;14.40;99.90;;;;;;5084671;27;20051;-73
2023/03/31 11:04:35;;;;;;;9.35;3.08;;;14.40;99.90;;;;;;5117062;27;20126;-73
2023/03/31 11:07:16;;;;;;;9.30;4.05;;;14.30;99.90;;;;;;5118537;27;20461;-73
2023/03/31 11:10:04;;;;;;;8.32;3.17;;;14.20;99.90;;;;;;5103370;27;20052;-73
2023/03/31 11:12:55;;;;;;;7.78;2.88;;;13.90;99.90;;;;;;5104673;27;20569;-74
2023/03/31 11:15:43;;;;;;;9.27;3.25;;;13.80;99.90;;;;;;5103736;27;20485;-74
2023/03/31 11:18:21;;;;;;;9.40;3.00;;;13.60;99.90;;;;;;5105236;27;20043;-75
2023/03/31 11:21:11;;;;;;;8.73;2.95;;;13.50;99.90;;;;;;5102791;27;20042;-75
2023/03/31 11:23:43;;;;;;;11.50;2.70;;;13.40;99.90;;;;;;5084687;27;20035;-73
2023/03/31 11:26:37;;;;;;;10.77;2.58;;;13.20;99.90;;;;;;5121399;27;20668;-74
2023/03/31 11:29:37;;;;;;;6.40;2.50;;;13.20;99.90;;;;;;5115626;27;20397;-76
2023/03/31 11:32:29;;;;;;;;;;;13.10;99.90;;;;;;5099899;27;20047;-76
2023/03/31 11:35:27;;;;;;;8.45;2.55;;;13.00;99.90;;;;;;5100034;27;19923;-76
2023/03/31 11:38:38;;;;;;;5.43;2.30;;;12.90;99.90;;;;;;5101918;27;20433;-80
2023/03/31 11:41:10;;;;;;;6.53;2.25;;;12.80;99.90;;;;;;5101511;27;20618;-76
2023/03/31 11:44:12;;;;;;;4.35;2.03;;;12.80;99.90;;;;;;5121776;27;20053;-78
2023/03/31 11:47:10;;;;;;;7.20;2.60;;;13.00;99.90;;;;;;5119019;27;20350;-77
2023/03/31 11:49:44;;;;;;;7.22;2.60;;;12.20;99.90;;;;;;5138912;27;20049;-76
2023/03/31 11:52:33;;;;;;;7.00;2.53;;;12.70;99.90;;;;;;5135297;27;20039;-77
2023/03/31 11:55:42;;;;;;;5.32;2.53;;;12.80;99.90;;;;;;5119921;27;20038;-78
2023/03/31 11:58:20;;;;;;;7.43;2.80;;;12.70;99.90;;;;;;5133125;27;20055;-77
2023/03/31 12:00:58;;;;;;;8.33;3.03;;;12.80;99.90;;;;;;5078594;27;20059;-77
2023/03/31 12:03:52;;;;;;;9.35;2.47;;;12.80;99.90;;;;;;5119223;27;20032;-73
2023/03/31 12:06:22;;;;;;;6.60;2.33;;;12.80;99.90;;;;;;5112273;27;20051;-78
2023/03/31 12:09:18;;;;;;;5.97;2.60;;;12.80;99.90;;;;;;5087514;27;20504;-76
2023/03/31 12:12:06;;;;;;;5.93;2.47;;;12.80;99.90;;;;;;5088081;27;20134;-77
2023/03/31 12:14:47;;;;;;;7.78;2.80;;;12.80;99.90;;;;;;5120497;27;20051;-77
2023/03/31 12:17:17;;;;;;;7.00;2.38;;;12.80;99.90;;;;;;5120373;27;20150;-76
2023/03/31 12:19:55;;;;;;;9.13;2.30;;;12.70;99.90;;;;;;5117163;27;20121;-77
2023/03/31 12:22:48;;;;;;;7.03;2.00;;;12.70;99.90;;;;;;5119684;27;20047;-77
2023/03/31 12:25:25;;;;;;;7.75;2.38;;;12.70;99.90;;;;;;5113846;27;20175;-76
2023/03/31 12:28:04;;;;;;;6.15;2.03;;;12.80;99.90;;;;;;5118697;27;20125;-78
2023/03/31 12:30:42;;;;;;;8.60;2.20;;;12.80;99.90;;;;;;5122442;27;20179;-73
2023/03/31 12:33:30;;;;;;;7.80;2.28;;;12.80;99.90;;;;;;5133496;27;20039;-73
2023/03/31 12:36:35;;;;;;;5.35;2.40;;;12.80;99.90;;;;;;5100685;27;20051;-73
2023/03/31 12:39:11;;;;;;;9.15;2.60;;;12.70;99.90;;;;;;5101773;27;20047;-70
2023/03/31 12:42:15;;;;;;;7.05;2.85;;;12.60;99.90;;;;;;5095433;27;20050;-75
2023/03/31 12:45:17;;;;;;;7.22;2.88;;;12.60;99.90;;;;;;5095491;27;20497;-75
2023/03/31 12:48:21;;;;;;;10.73;2.38;;;12.60;99.90;;;;;;5084013;27;20047;-75
2023/03/31 12:51:08;;;;;;;9.13;2.58;;;12.50;99.90;;;;;;5114586;27;20127;-75
2023/03/31 12:54:13;;;;;;;11.70;2.55;;;12.50;99.90;;;;;;5121886;27;20056;-74
2023/03/31 12:57:02;;;;;;;11.93;2.63;;;12.50;99.90;;;;;;5115490;27;20051;-74
2023/03/31 12:59:36;;;;;;;9.43;2.90;;;12.50;99.90;;;;;;5113239;27;20091;-75
2023/03/31 13:02:22;;;;;;;11.23;2.53;;;12.40;99.90;;;;;;5098683;27;20043;-74
2023/03/31 13:04:49;;;;;;;11.15;2.40;;;12.30;99.90;;;;;;5115158;27;20051;-75
2023/03/31 13:07:36;;;;;;;7.43;2.08;;;12.40;99.90;;;;;;5100454;27;20051;-73
2023/03/31 13:10:20;;;;;;;7.85;2.20;;;12.30;99.90;;;;;;5063105;27;20043;-72
2023/03/31 13:13:14;;;;;;;7.05;2.28;;;12.30;99.90;;;;;;5093672;27;20055;-73
2023/03/31 13:15:53;;;;;;;7.35;2.53;;;12.40;99.90;;;;;;5111374;27;20096;-73
2023/03/31 13:18:21;;;;;;;9.98;2.28;;;12.40;99.90;;;;;;5128286;27;20054;-73
2023/03/31 13:21:03;;;;;;;7.65;2.63;;;12.60;99.90;;;;;;5113781;27;20083;-73
2023/03/31 13:23:36;;;;;;;7.35;2.22;;;12.70;99.90;;;;;;5097279;27;20668;-73
2023/03/31 13:26:03;;;;;;;6.28;2.10;;;12.80;99.90;;;;;;5100598;27;20055;-74